Time;durP1;ratioP1;P1;durP2;ratioP2;P2;SDS_P1;SDS_P2;PMS_P1;PMS_P2;Temp;Humidity;BMP_temperature;BMP_pressure;BME280_temperature;BME280_humidity;BME280_pressure;Samples;Min_cycle;Max_cycle;Signal;HPM_P1;HPM_P2
2021/10/24 00:00:10;;;;;;;17.97;12.10;;;2.80;99.90;;;;;;5049936;28;20452;-62
2021/10/24 00:02:39;;;;;;;21.13;13.47;;;2.90;99.90;;;;;;5050163;28;20456;-61
2021/10/24 00:05:06;;;;;;;17.10;13.20;;;2.90;99.90;;;;;;5049837;28;20459;-62
2021/10/24 00:07:33;;;;;;;16.43;13.47;;;2.80;99.90;;;;;;5049399;28;20554;-62
2021/10/24 00:10:00;;;;;;;17.83;12.83;;;2.90;99.90;;;;;;5049768;28;20475;-63
2021/10/24 00:12:27;;;;;;;16.90;12.17;;;2.80;99.90;;;;;;5049506;28;20455;-62
2021/10/24 00:14:54;;;;;;;16.83;12.80;;;2.80;99.90;;;;;;5049256;28;20467;-63
2021/10/24 00:17:21;;;;;;;15.23;12.00;;;2.70;99.90;;;;;;5049224;28;20661;-62
2021/10/24 00:19:49;;;;;;;17.10;13.60;;;2.80;99.90;;;;;;5049329;28;20447;-62
2021/10/24 00:22:16;;;;;;;18.90;13.33;;;2.70;99.90;;;;;;5049305;28;20448;-63
2021/10/24 00:24:43;;;;;;;18.13;14.20;;;2.70;99.90;;;;;;5049508;28;20460;-62
2021/10/24 00:27:10;;;;;;;18.93;14.90;;;2.80;99.90;;;;;;5049187;28;20446;-62
2021/10/24 00:29:36;;;;;;;17.67;13.00;;;2.70;99.90;;;;;;5051919;28;20891;-62
2021/10/24 00:32:05;;;;;;;16.10;12.87;;;2.80;99.90;;;;;;5052841;28;20479;-62
2021/10/24 00:34:32;;;;;;;18.80;14.07;;;2.90;99.90;;;;;;5052815;28;20519;-62
2021/10/24 00:37:00;;;;;;;17.67;13.13;;;2.90;99.90;;;;;;5052798;28;20458;-62
2021/10/24 00:39:27;;;;;;;20.17;13.70;;;2.90;99.90;;;;;;5053034;28;20451;-62
2021/10/24 00:41:54;;;;;;;15.77;13.33;;;3.00;99.90;;;;;;5052808;28;20444;-62
2021/10/24 00:44:23;;;;;;;15.13;13.57;;;2.90;99.90;;;;;;5052882;28;20468;-62
2021/10/24 00:46:51;;;;;;;14.93;13.13;;;2.90;99.90;;;;;;5052586;28;21212;-62
2021/10/24 00:49:18;;;;;;;26.13;14.87;;;2.90;99.90;;;;;;5052962;28;20829;-62
2021/10/24 00:51:46;;;;;;;14.77;13.27;;;2.90;99.90;;;;;;5052806;28;20479;-64
2021/10/24 00:54:15;;;;;;;20.07;14.23;;;2.80;99.90;;;;;;5052542;28;20478;-62
2021/10/24 00:56:44;;;;;;;18.40;12.90;;;2.80;99.90;;;;;;5052619;28;20451;-63
2021/10/24 00:59:11;;;;;;;16.50;12.70;;;2.70;99.90;;;;;;5052633;28;20577;-63
2021/10/24 01:01:38;;;;;;;17.27;13.33;;;2.70;99.90;;;;;;5052477;28;20440;-63
2021/10/24 01:04:05;;;;;;;15.57;13.33;;;2.70;99.90;;;;;;5052217;28;20468;-62
2021/10/24 01:06:34;;;;;;;16.63;13.00;;;2.70;99.90;;;;;;5052318;28;20479;-63
2021/10/24 01:09:01;;;;;;;19.97;13.77;;;2.70;99.90;;;;;;5052276;28;20452;-63
2021/10/24 01:11:29;;;;;;;19.80;13.90;;;2.70;99.90;;;;;;5052473;28;20496;-63
2021/10/24 01:13:57;;;;;;;17.87;13.03;;;2.70;99.90;;;;;;5051966;28;20534;-63
2021/10/24 01:16:24;;;;;;;22.30;14.17;;;2.70;99.90;;;;;;5052159;28;20455;-63
2021/10/24 01:18:51;;;;;;;18.20;13.70;;;2.80;99.90;;;;;;5052205;28;20448;-63
2021/10/24 01:21:20;;;;;;;21.20;13.57;;;2.70;99.90;;;;;;5051911;28;20444;-63
2021/10/24 01:23:47;;;;;;;15.97;13.93;;;2.70;99.90;;;;;;5051830;28;20498;-62
2021/10/24 01:26:14;;;;;;;20.17;13.40;;;2.70;99.90;;;;;;5052209;28;20533;-62
2021/10/24 01:28:41;;;;;;;20.00;13.10;;;2.70;99.90;;;;;;5052055;28;20450;-63
2021/10/24 01:31:07;;;;;;;17.60;12.80;;;2.70;99.90;;;;;;5051909;28;21027;-63
2021/10/24 01:33:34;;;;;;;20.10;14.03;;;2.70;99.90;;;;;;5050844;28;20896;-62
2021/10/24 01:36:05;;;;;;;17.77;13.30;;;2.70;99.90;;;;;;5051555;28;20474;-63
2021/10/24 01:38:35;;;;;;;15.30;12.70;;;2.60;99.90;;;;;;5050785;28;20485;-63
2021/10/24 01:41:02;;;;;;;20.27;13.90;;;2.60;99.90;;;;;;5051028;28;20440;-63
2021/10/24 01:43:29;;;;;;;13.60;11.10;;;2.50;99.90;;;;;;5051970;28;20450;-63
2021/10/24 01:45:57;;;;;;;18.37;11.87;;;2.50;99.90;;;;;;5051490;28;20518;-63
2021/10/24 01:48:24;;;;;;;18.70;11.50;;;2.50;99.90;;;;;;5051395;28;20444;-63
2021/10/24 01:50:53;;;;;;;17.00;13.03;;;2.40;99.90;;;;;;5051532;28;20467;-63
2021/10/24 01:53:23;;;;;;;17.20;13.47;;;2.40;99.90;;;;;;5051575;28;20451;-63
2021/10/24 01:55:52;;;;;;;13.50;11.23;;;2.40;99.90;;;;;;5051261;28;20472;-62
2021/10/24 01:58:19;;;;;;;14.93;11.33;;;2.40;99.90;;;;;;5051156;28;20444;-62
2021/10/24 02:00:46;;;;;;;16.10;12.30;;;2.40;99.90;;;;;;5051354;28;20494;-62
2021/10/24 02:03:13;;;;;;;19.57;12.90;;;2.40;99.90;;;;;;5051614;28;20491;-62
2021/10/24 02:05:40;;;;;;;16.20;11.30;;;2.40;99.90;;;;;;5051361;28;20471;-61
2021/10/24 02:08:08;;;;;;;14.50;11.63;;;2.30;99.90;;;;;;5051169;28;20452;-62
2021/10/24 02:10:35;;;;;;;16.50;10.47;;;2.30;99.90;;;;;;5051320;28;20459;-62
2021/10/24 02:13:04;;;;;;;14.40;10.60;;;2.30;99.90;;;;;;5051403;28;20444;-63
2021/10/24 02:15:31;;;;;;;20.47;12.00;;;2.20;99.90;;;;;;5051394;28;20590;-62
2021/10/24 02:17:58;;;;;;;14.30;11.90;;;2.20;99.90;;;;;;5051020;28;20531;-62
2021/10/24 02:20:25;;;;;;;15.70;11.90;;;2.20;99.90;;;;;;5051038;28;20463;-62
2021/10/24 02:22:52;;;;;;;15.53;11.60;;;2.20;99.90;;;;;;5051345;28;20450;-63
2021/10/24 02:25:19;;;;;;;12.67;11.30;;;2.20;99.90;;;;;;5051119;28;20468;-62
2021/10/24 02:27:46;;;;;;;19.43;11.70;;;2.20;99.90;;;;;;5050779;28;20451;-62
2021/10/24 02:30:15;;;;;;;13.60;10.90;;;2.10;99.90;;;;;;5051452;28;20439;-62
2021/10/24 02:32:43;;;;;;;17.93;12.97;;;2.10;99.90;;;;;;5051220;28;20523;-62
2021/10/24 02:35:12;;;;;;;17.20;12.57;;;2.10;99.90;;;;;;5051083;28;20476;-62
2021/10/24 02:37:39;;;;;;;14.90;11.77;;;2.00;99.90;;;;;;5050905;28;20444;-62
2021/10/24 02:40:08;;;;;;;15.40;12.23;;;2.00;99.90;;;;;;5051000;28;20454;-63
2021/10/24 02:42:35;;;;;;;15.20;11.87;;;1.90;99.90;;;;;;5050938;28;20439;-62
2021/10/24 02:45:03;;;;;;;14.03;11.63;;;1.90;99.90;;;;;;5050864;28;20551;-62
2021/10/24 02:47:31;;;;;;;13.37;11.97;;;1.90;99.90;;;;;;5050267;28;20448;-62
2021/10/24 02:49:58;;;;;;;17.17;11.87;;;1.80;99.90;;;;;;5050654;28;20471;-60
2021/10/24 02:52:24;;;;;;;19.10;11.97;;;1.80;99.90;;;;;;5049704;28;20491;-62
2021/10/24 02:54:51;;;;;;;12.83;11.27;;;1.80;99.90;;;;;;5050288;28;20467;-63
2021/10/24 02:57:18;;;;;;;14.83;11.03;;;1.80;99.90;;;;;;5050435;28;20452;-62
2021/10/24 02:59:45;;;;;;;19.90;11.80;;;1.90;99.90;;;;;;5050703;28;20440;-63
2021/10/24 03:02:12;;;;;;;15.10;12.03;;;1.90;99.90;;;;;;5050429;28;20447;-62
2021/10/24 03:04:40;;;;;;;17.60;13.33;;;1.80;99.90;;;;;;5050465;28;20472;-62
2021/10/24 03:07:07;;;;;;;16.73;12.07;;;1.80;99.90;;;;;;5049862;28;20730;-63
2021/10/24 03:09:33;;;;;;;14.20;10.93;;;1.70;99.90;;;;;;5050109;28;20454;-63
2021/10/24 03:12:00;;;;;;;14.77;11.57;;;1.70;99.90;;;;;;5050231;28;20479;-63
2021/10/24 03:14:27;;;;;;;15.50;11.20;;;1.70;99.90;;;;;;5049813;28;20468;-63
2021/10/24 03:16:54;;;;;;;18.13;12.77;;;1.60;99.90;;;;;;5049792;28;20838;-62
2021/10/24 03:19:21;;;;;;;14.93;11.87;;;1.60;99.90;;;;;;5049854;28;20436;-62
2021/10/24 03:21:49;;;;;;;14.80;10.87;;;1.60;99.90;;;;;;5049939;28;20444;-62
2021/10/24 03:24:18;;;;;;;17.60;11.77;;;1.50;99.90;;;;;;5049889;28;21037;-62
2021/10/24 03:26:45;;;;;;;17.00;10.80;;;1.50;99.90;;;;;;5049886;28;20935;-62
2021/10/24 03:29:12;;;;;;;16.57;12.23;;;1.40;99.90;;;;;;5050003;28;20450;-62
2021/10/24 03:31:38;;;;;;;13.60;11.90;;;1.50;99.90;;;;;;5049957;28;20571;-62
2021/10/24 03:34:05;;;;;;;18.10;12.70;;;1.50;99.90;;;;;;5049703;28;20856;-62
2021/10/24 03:36:32;;;;;;;18.63;12.23;;;1.40;99.90;;;;;;5049546;28;20454;-62
2021/10/24 03:39:00;;;;;;;12.50;10.33;;;1.40;99.90;;;;;;5049823;28;20444;-62
2021/10/24 03:41:27;;;;;;;17.93;11.13;;;1.40;99.90;;;;;;5049811;28;21169;-62
2021/10/24 03:43:54;;;;;;;18.17;11.80;;;1.40;99.90;;;;;;5049727;28;20439;-62
2021/10/24 03:46:21;;;;;;;18.13;12.10;;;1.40;99.90;;;;;;5049479;28;20463;-62
2021/10/24 03:48:47;;;;;;;15.57;11.90;;;1.40;99.90;;;;;;5049708;28;20455;-63
2021/10/24 03:51:14;;;;;;;13.90;11.97;;;1.40;99.90;;;;;;5049891;28;20447;-62
2021/10/24 03:53:41;;;;;;;15.23;10.53;;;1.40;99.90;;;;;;5049900;28;20470;-62
2021/10/24 03:56:09;;;;;;;17.57;12.07;;;1.50;99.90;;;;;;5049976;28;20475;-62
2021/10/24 03:58:36;;;;;;;14.83;11.00;;;1.50;99.90;;;;;;5049710;28;20535;-62
2021/10/24 04:01:03;;;;;;;13.77;11.27;;;1.50;99.90;;;;;;5049631;28;20443;-61
2021/10/24 04:03:31;;;;;;;14.93;11.70;;;1.40;99.90;;;;;;5050915;28;20454;-62
2021/10/24 04:05:57;;;;;;;19.30;11.20;;;1.50;99.90;;;;;;5053396;28;20997;-62
2021/10/24 04:08:24;;;;;;;12.40;11.10;;;1.40;99.90;;;;;;5053453;28;20448;-61
2021/10/24 04:10:51;;;;;;;14.90;10.23;;;1.40;99.90;;;;;;5053494;28;20456;-61
2021/10/24 04:13:19;;;;;;;12.17;10.30;;;1.30;99.90;;;;;;5053238;28;20479;-62
2021/10/24 04:15:47;;;;;;;14.60;10.80;;;1.40;99.90;;;;;;5053343;28;20486;-60
2021/10/24 04:18:14;;;;;;;16.30;11.10;;;1.40;99.90;;;;;;5052823;28;20540;-62
2021/10/24 04:20:40;;;;;;;13.43;10.90;;;1.40;99.90;;;;;;5053389;28;20451;-62
2021/10/24 04:23:08;;;;;;;14.50;10.50;;;1.30;99.90;;;;;;5053496;28;20829;-62
2021/10/24 04:25:35;;;;;;;17.50;11.60;;;1.20;99.90;;;;;;5053213;28;20470;-61
2021/10/24 04:28:02;;;;;;;14.70;10.97;;;1.20;99.90;;;;;;5052965;28;20454;-61
2021/10/24 04:30:30;;;;;;;15.23;10.70;;;1.10;99.90;;;;;;5053048;28;20448;-62
2021/10/24 04:32:57;;;;;;;18.10;11.17;;;1.20;99.90;;;;;;5053289;28;21162;-62
2021/10/24 04:35:23;;;;;;;11.93;10.60;;;1.10;99.90;;;;;;5053097;28;20471;-62
2021/10/24 04:37:50;;;;;;;14.53;10.83;;;1.10;99.90;;;;;;5053117;28;20461;-62
2021/10/24 04:40:17;;;;;;;12.60;10.13;;;1.10;99.90;;;;;;5053621;28;20850;-62
2021/10/24 04:42:44;;;;;;;15.77;11.47;;;1.10;99.90;;;;;;5053466;28;20977;-62
2021/10/24 04:45:11;;;;;;;14.87;9.97;;;1.10;99.90;;;;;;5052787;28;20912;-63
2021/10/24 04:47:39;;;;;;;15.50;11.27;;;1.10;99.90;;;;;;5052604;28;20953;-62
2021/10/24 04:50:08;;;;;;;15.00;11.50;;;1.10;99.90;;;;;;5053263;28;20440;-63
2021/10/24 04:52:36;;;;;;;16.60;10.87;;;1.10;99.90;;;;;;5053085;28;20525;-63
2021/10/24 04:55:03;;;;;;;19.17;11.80;;;1.00;99.90;;;;;;5052913;28;21004;-63
2021/10/24 04:57:30;;;;;;;16.10;10.67;;;1.10;99.90;;;;;;5052677;28;20444;-63
2021/10/24 04:59:57;;;;;;;16.30;12.17;;;1.10;99.90;;;;;;5052967;28;20543;-60
2021/10/24 05:02:24;;;;;;;14.37;9.70;;;1.00;99.90;;;;;;5052954;28;20443;-62
2021/10/24 05:04:52;;;;;;;12.93;10.50;;;1.00;99.90;;;;;;5052745;28;20552;-62
2021/10/24 05:07:19;;;;;;;11.50;9.80;;;1.00;99.90;;;;;;5052500;28;20444;-63
2021/10/24 05:09:46;;;;;;;17.43;11.00;;;1.00;99.90;;;;;;5052468;28;20455;-63
2021/10/24 05:12:12;;;;;;;16.33;10.57;;;0.90;99.90;;;;;;5052402;28;20484;-63
2021/10/24 05:14:39;;;;;;;12.90;9.73;;;1.00;99.90;;;;;;5052026;28;20472;-63
2021/10/24 05:17:06;;;;;;;13.57;9.77;;;1.00;99.90;;;;;;5051993;28;20447;-62
2021/10/24 05:19:33;;;;;;;14.70;12.37;;;1.00;99.90;;;;;;5052423;28;20444;-63
2021/10/24 05:22:01;;;;;;;13.60;9.97;;;0.90;99.90;;;;;;5052136;28;20447;-63
2021/10/24 05:24:28;;;;;;;13.60;10.50;;;0.80;99.90;;;;;;5051964;28;20993;-63
2021/10/24 05:26:55;;;;;;;14.77;10.43;;;0.90;99.90;;;;;;5051522;28;20474;-62
2021/10/24 05:29:22;;;;;;;12.43;10.60;;;0.90;99.90;;;;;;5051791;28;20962;-63
2021/10/24 05:31:49;;;;;;;15.60;10.23;;;0.80;99.90;;;;;;5051672;28;20861;-63
2021/10/24 05:34:16;;;;;;;15.03;11.40;;;0.80;99.90;;;;;;5051636;28;20475;-62
2021/10/24 05:36:43;;;;;;;15.90;10.90;;;0.70;99.90;;;;;;5051397;28;20451;-63
2021/10/24 05:39:12;;;;;;;15.63;10.90;;;0.80;99.90;;;;;;5051616;28;20914;-62
2021/10/24 05:41:38;;;;;;;15.37;11.50;;;0.70;99.90;;;;;;5051560;28;21009;-62
2021/10/24 05:44:06;;;;;;;16.70;12.40;;;0.60;99.90;;;;;;5051511;28;20468;-63
2021/10/24 05:46:33;;;;;;;14.57;10.83;;;0.70;99.90;;;;;;5051397;28;20441;-62
2021/10/24 05:49:01;;;;;;;13.90;9.20;;;0.70;99.90;;;;;;5051597;28;20440;-63
2021/10/24 05:51:28;;;;;;;13.10;9.57;;;0.60;99.90;;;;;;5051428;28;20451;-62
2021/10/24 05:53:55;;;;;;;13.00;10.00;;;0.60;99.90;;;;;;5051165;28;20481;-62
2021/10/24 05:56:23;;;;;;;13.30;10.80;;;0.50;99.90;;;;;;5051301;28;20821;-62
2021/10/24 05:58:50;;;;;;;18.33;10.77;;;0.60;99.90;;;;;;5051231;28;20448;-63
2021/10/24 06:01:17;;;;;;;18.77;10.47;;;0.60;99.90;;;;;;5051194;28;20962;-63
2021/10/24 06:03:44;;;;;;;13.60;10.20;;;0.70;99.90;;;;;;5051273;28;20440;-63
2021/10/24 06:06:11;;;;;;;15.80;9.70;;;0.70;99.90;;;;;;5051102;28;20450;-62
2021/10/24 06:08:37;;;;;;;14.33;10.47;;;0.70;99.90;;;;;;5050770;28;20536;-62
2021/10/24 06:11:17;;;;;;;15.50;10.20;;;0.70;99.90;;;;;;5051283;28;20528;-63
2021/10/24 06:13:46;;;;;;;12.17;9.47;;;0.70;99.90;;;;;;5050828;28;20483;-63
2021/10/24 06:16:13;;;;;;;15.27;10.40;;;0.80;99.90;;;;;;5050928;28;20447;-62
2021/10/24 06:18:40;;;;;;;15.37;11.07;;;0.80;99.90;;;;;;5050861;28;20448;-61
2021/10/24 06:21:07;;;;;;;12.77;9.87;;;0.80;99.90;;;;;;5050711;28;20480;-62
2021/10/24 06:23:34;;;;;;;15.70;11.63;;;0.90;99.90;;;;;;5050742;28;20926;-62
2021/10/24 06:26:01;;;;;;;13.90;9.30;;;0.70;99.90;;;;;;5050593;28;20470;-62
2021/10/24 06:28:28;;;;;;;15.73;9.73;;;0.80;99.90;;;;;;5050422;28;20444;-62
2021/10/24 06:30:56;;;;;;;13.60;10.27;;;0.80;99.90;;;;;;5050670;28;20936;-63
2021/10/24 06:33:23;;;;;;;13.53;11.10;;;0.80;99.90;;;;;;5050484;28;20472;-62
2021/10/24 06:35:50;;;;;;;13.60;9.33;;;0.80;99.90;;;;;;5050407;28;20492;-62
2021/10/24 06:38:19;;;;;;;13.70;10.30;;;0.80;99.90;;;;;;5050184;28;20455;-62
2021/10/24 06:40:46;;;;;;;14.77;10.30;;;0.80;99.90;;;;;;5050418;28;20448;-61
2021/10/24 06:43:14;;;;;;;12.37;10.30;;;0.90;99.90;;;;;;5050381;28;20849;-62
2021/10/24 06:45:41;;;;;;;14.03;10.67;;;0.90;99.90;;;;;;5050337;28;20511;-62
2021/10/24 06:48:09;;;;;;;15.30;10.77;;;1.00;99.90;;;;;;5049931;28;20504;-62
2021/10/24 06:50:36;;;;;;;12.63;10.13;;;1.00;99.90;;;;;;5050189;28;20946;-62
2021/10/24 06:53:03;;;;;;;13.37;9.60;;;1.10;99.90;;;;;;5050266;28;20486;-62
2021/10/24 06:55:30;;;;;;;19.77;12.07;;;1.20;99.90;;;;;;5050253;28;20478;-62
2021/10/24 06:57:57;;;;;;;12.17;10.80;;;1.30;99.90;;;;;;5049871;28;20448;-62
2021/10/24 07:00:25;;;;;;;15.70;11.90;;;1.40;99.90;;;;;;5050097;28;20439;-61
2021/10/24 07:02:53;;;;;;;17.33;11.30;;;1.50;99.90;;;;;;5050038;28;20451;-62
2021/10/24 07:05:22;;;;;;;14.70;11.50;;;1.50;99.90;;;;;;5050131;28;20843;-62
2021/10/24 07:07:49;;;;;;;14.97;11.47;;;1.50;99.90;;;;;;5049914;28;20451;-61
2021/10/24 07:10:17;;;;;;;16.10;12.07;;;1.60;99.90;;;;;;5050280;28;20450;-62
2021/10/24 07:12:44;;;;;;;16.63;11.80;;;1.70;99.90;;;;;;5049722;28;20480;-62
2021/10/24 07:15:12;;;;;;;14.77;12.73;;;1.80;99.90;;;;;;5049711;28;20551;-62
2021/10/24 07:17:38;;;;;;;17.20;13.00;;;1.90;99.90;;;;;;5049485;28;20530;-62
2021/10/24 07:20:07;;;;;;;16.13;11.33;;;2.00;99.90;;;;;;5049710;28;20439;-62
2021/10/24 07:22:35;;;;;;;16.47;12.00;;;2.10;99.90;;;;;;5049866;28;20436;-62
2021/10/24 07:25:02;;;;;;;18.60;11.57;;;2.10;99.90;;;;;;5049834;28;20476;-62
2021/10/24 07:27:29;;;;;;;16.60;10.90;;;2.20;99.90;;;;;;5049303;28;20945;-62
2021/10/24 07:29:56;;;;;;;18.60;12.40;;;2.30;99.90;;;;;;5049904;28;20447;-62
2021/10/24 07:32:23;;;;;;;18.20;13.00;;;2.40;99.90;;;;;;5049794;28;20483;-62
2021/10/24 07:34:50;;;;;;;16.67;11.87;;;2.50;99.90;;;;;;5049481;28;20857;-62
2021/10/24 07:37:17;;;;;;;15.03;12.63;;;2.60;99.90;;;;;;5049333;28;20456;-61
2021/10/24 07:39:45;;;;;;;15.33;13.13;;;2.70;99.90;;;;;;5049195;28;20823;-63
2021/10/24 07:42:12;;;;;;;18.20;12.10;;;2.80;99.90;;;;;;5049410;28;20447;-62
2021/10/24 07:44:39;;;;;;;14.30;11.57;;;2.90;99.90;;;;;;5049495;28;21024;-61
2021/10/24 07:47:06;;;;;;;16.70;12.23;;;3.00;99.90;;;;;;5049260;28;20447;-60
2021/10/24 07:49:34;;;;;;;16.20;12.33;;;3.20;99.90;;;;;;5049649;28;20470;-62
2021/10/24 07:52:01;;;;;;;20.30;13.03;;;3.30;99.90;;;;;;5049676;28;20444;-62
2021/10/24 07:54:28;;;;;;;15.37;11.60;;;3.50;99.90;;;;;;5049295;28;20495;-63
2021/10/24 07:56:57;;;;;;;15.27;11.77;;;3.60;99.90;;;;;;5049362;28;20452;-62
2021/10/24 07:59:24;;;;;;;15.80;11.40;;;3.80;99.90;;;;;;5049565;28;20454;-62
2021/10/24 08:01:51;;;;;;;14.67;13.17;;;4.00;99.90;;;;;;5049573;28;20448;-63
2021/10/24 08:04:18;;;;;;;15.73;12.33;;;4.10;99.90;;;;;;5049349;28;20946;-62
2021/10/24 08:06:45;;;;;;;16.93;12.10;;;4.20;99.90;;;;;;5049201;28;20528;-62
2021/10/24 08:09:13;;;;;;;15.67;11.97;;;4.40;99.90;;;;;;5049205;28;20723;-63
2021/10/24 08:11:40;;;;;;;14.00;12.60;;;4.60;99.90;;;;;;5049281;28;20448;-62
2021/10/24 08:14:09;;;;;;;12.00;10.57;;;4.70;99.90;;;;;;5049283;28;20557;-62
2021/10/24 08:16:36;;;;;;;14.63;11.30;;;4.90;99.90;;;;;;5049267;28;20466;-63
2021/10/24 08:19:03;;;;;;;13.87;10.00;;;5.00;99.90;;;;;;5049537;28;20452;-63
2021/10/24 08:21:30;;;;;;;12.07;10.60;;;5.20;99.90;;;;;;5049440;28;20479;-63
2021/10/24 08:23:57;;;;;;;12.97;9.77;;;5.30;99.90;;;;;;5049157;28;20759;-63
2021/10/24 08:26:24;;;;;;;13.30;11.50;;;5.40;99.90;;;;;;5049116;28;20820;-62
2021/10/24 08:28:51;;;;;;;14.80;10.77;;;5.50;99.90;;;;;;5049240;28;20964;-63
2021/10/24 08:31:24;;;;;;;13.53;11.90;;;5.60;99.90;;;;;;5049138;28;20452;-62
2021/10/24 08:33:52;;;;;;;12.00;10.00;;;5.80;99.90;;;;;;5048792;28;20490;-63
2021/10/24 08:36:20;;;;;;;12.83;10.80;;;5.90;99.90;;;;;;5048699;28;20444;-63
2021/10/24 08:38:46;;;;;;;15.03;11.50;;;6.00;99.90;;;;;;5049383;28;20973;-63
2021/10/24 08:41:14;;;;;;;14.40;12.07;;;6.20;99.90;;;;;;5048940;28;20451;-63
2021/10/24 08:43:45;;;;;;;14.67;10.33;;;6.40;99.90;;;;;;5049217;28;20442;-63
2021/10/24 08:46:12;;;;;;;14.70;11.90;;;6.50;99.90;;;;;;5048893;28;20448;-63
2021/10/24 08:48:40;;;;;;;12.97;10.53;;;6.60;99.90;;;;;;5048853;28;20468;-63
2021/10/24 08:51:07;;;;;;;11.40;9.00;;;6.80;99.90;;;;;;5050725;28;21094;-63
2021/10/24 08:53:35;;;;;;;10.90;9.77;;;6.90;99.90;;;;;;5052643;28;20498;-63
2021/10/24 08:56:02;;;;;;;12.20;9.83;;;7.00;99.90;;;;;;5052445;28;20486;-63
2021/10/24 08:58:29;;;;;;;12.43;11.13;;;7.10;99.90;;;;;;5052262;28;20467;-63
2021/10/24 09:00:56;;;;;;;10.20;8.40;;;7.30;99.90;;;;;;5052510;28;20446;-62
2021/10/24 09:03:23;;;;;;;11.13;9.40;;;7.40;99.90;;;;;;5052209;28;20448;-63
2021/10/24 09:05:53;;;;;;;11.50;9.40;;;7.50;99.90;;;;;;5052163;28;20558;-64
2021/10/24 09:08:21;;;;;;;9.93;8.90;;;7.60;99.90;;;;;;5052103;28;20447;-62
2021/10/24 09:10:51;;;;;;;14.27;9.37;;;7.80;99.90;;;;;;5052324;28;20448;-63
2021/10/24 09:13:19;;;;;;;9.53;7.87;;;8.00;99.90;;;;;;5052049;28;20479;-63
2021/10/24 09:15:49;;;;;;;10.50;8.70;;;8.30;99.90;;;;;;5051946;28;20472;-63
2021/10/24 09:18:18;;;;;;;11.33;8.67;;;8.50;99.90;;;;;;5051698;28;21084;-63
2021/10/24 09:20:45;;;;;;;12.20;10.33;;;8.70;99.90;;;;;;5052217;28;20444;-63
2021/10/24 09:23:14;;;;;;;9.33;7.40;;;9.00;99.90;;;;;;5052053;28;20451;-63
2021/10/24 09:25:49;;;;;;;10.53;8.97;;;9.30;99.90;;;;;;5051821;28;20479;-62
2021/10/24 09:28:17;;;;;;;8.33;7.10;;;9.80;99.90;;;;;;5051659;28;20967;-63
2021/10/24 09:30:45;;;;;;;7.87;7.07;;;10.10;99.90;;;;;;5051816;28;20447;-62
2021/10/24 09:33:12;;;;;;;8.60;7.20;;;10.50;99.90;;;;;;5051652;28;20575;-63
2021/10/24 09:35:41;;;;;;;8.27;7.47;;;10.80;99.90;;;;;;5051574;28;21023;-62
2021/10/24 09:38:13;;;;;;;8.17;7.33;;;11.10;99.90;;;;;;5051408;28;20448;-63
2021/10/24 09:40:46;;;;;;;10.70;7.73;;;11.50;99.90;;;;;;5051684;28;20965;-63
2021/10/24 09:43:18;;;;;;;8.17;6.67;;;11.80;99.90;;;;;;5051487;28;20509;-63
2021/10/24 09:45:46;;;;;;;8.70;7.63;;;12.20;99.90;;;;;;5051490;28;20467;-62
2021/10/24 09:48:15;;;;;;;8.60;7.00;;;12.70;99.90;;;;;;5051252;28;20451;-63
2021/10/24 09:50:46;;;;;;;8.57;7.10;;;13.20;99.90;;;;;;5051446;28;20440;-63
2021/10/24 09:53:17;;;;;;;8.80;6.90;;;13.70;99.90;;;;;;5051385;28;20452;-63
2021/10/24 09:55:47;;;;;;;6.90;6.03;;;14.20;99.90;;;;;;5051078;28;20460;-63
2021/10/24 09:58:15;;;;;;;6.97;6.27;;;14.80;99.90;;;;;;5051184;28;20534;-63
2021/10/24 10:00:43;;;;;;;8.23;6.30;;;15.40;99.90;;;;;;5050926;28;20454;-63
2021/10/24 10:03:10;;;;;;;7.30;6.60;;;15.80;99.90;;;;;;5051242;28;20539;-63
2021/10/24 10:05:38;;;;;;;6.47;5.60;;;16.10;99.90;;;;;;5051126;28;20499;-64
2021/10/24 10:08:07;;;;;;;7.00;6.13;;;16.40;99.90;;;;;;5050829;28;20444;-63
2021/10/24 10:10:38;;;;;;;8.20;6.60;;;16.60;99.90;;;;;;5051350;28;20908;-64
2021/10/24 10:13:10;;;;;;;6.90;6.20;;;16.70;99.90;;;;;;5051039;28;20475;-64
2021/10/24 10:15:40;;;;;;;7.83;5.30;;;17.30;99.30;;;;;;5051142;28;20647;-64
2021/10/24 10:18:07;;;;;;;6.87;6.17;;;17.60;99.60;;;;;;5050705;28;20965;-63
2021/10/24 10:20:43;;;;;;;5.90;5.40;;;17.60;97.80;;;;;;5050971;28;20825;-61
2021/10/24 10:23:12;;;;;;;6.47;5.83;;;17.80;97.30;;;;;;5051285;28;20808;-61
2021/10/24 10:25:40;;;;;;;6.00;5.40;;;18.30;96.30;;;;;;5051017;28;20840;-61
2021/10/24 10:28:13;;;;;;;8.50;6.40;;;18.80;95.90;;;;;;5050934;28;20459;-64
2021/10/24 10:30:42;;;;;;;6.70;5.67;;;19.10;93.60;;;;;;5050728;28;20446;-64
2021/10/24 10:33:29;;;;;;;6.60;5.37;;;19.10;94.60;;;;;;5050652;28;20448;-64
2021/10/24 10:35:56;;;;;;;5.87;5.27;;;19.50;93.80;;;;;;5050648;28;20993;-64
2021/10/24 10:38:38;;;;;;;5.33;4.83;;;19.90;92.60;;;;;;5050375;28;20938;-64
2021/10/24 10:41:06;;;;;;;6.63;5.37;;;20.50;92.40;;;;;;5050575;28;20443;-64
2021/10/24 10:43:34;;;;;;;6.80;5.20;;;21.10;91.00;;;;;;5050532;28;20454;-64
2021/10/24 10:46:03;;;;;;;5.80;4.67;;;21.30;88.20;;;;;;5050494;28;20472;-64
2021/10/24 10:48:41;;;;;;;5.40;4.67;;;21.30;87.00;;;;;;5050413;28;20444;-64
2021/10/24 10:51:16;;;;;;;7.20;4.90;;;21.00;90.00;;;;;;5050616;28;20446;-64
2021/10/24 10:53:55;;;;;;;5.20;4.70;;;21.40;87.00;;;;;;5050715;28;20479;-64
2021/10/24 10:56:24;;;;;;;5.30;4.80;;;22.00;85.20;;;;;;5050172;28;20452;-63
2021/10/24 10:58:54;;;;;;;5.17;4.67;;;21.90;83.30;;;;;;5050231;28;20930;-64
2021/10/24 11:01:25;;;;;;;7.17;4.70;;;21.00;83.60;;;;;;5050204;28;20450;-64
2021/10/24 11:03:53;;;;;;;5.23;4.73;;;20.10;84.80;;;;;;5050207;28;20930;-64
2021/10/24 11:06:57;;;;;;;6.60;4.57;;;20.30;86.50;;;;;;5049864;28;20443;-63
2021/10/24 11:09:42;;;;;;;5.33;4.60;;;20.50;87.50;;;;;;5050107;28;20450;-64
2021/10/24 11:12:09;;;;;;;6.10;4.80;;;21.00;85.30;;;;;;5049952;28;20444;-64
2021/10/24 11:14:47;;;;;;;6.57;5.20;;;21.60;83.00;;;;;;5049250;28;20553;-64
2021/10/24 11:17:35;;;;;;;6.33;4.60;;;22.10;83.90;;;;;;5049608;28;20458;-64
2021/10/24 11:20:26;;;;;;;4.83;4.33;;;22.80;79.70;;;;;;5050043;28;20964;-64
2021/10/24 11:22:59;;;;;;;7.60;4.23;;;23.30;79.30;;;;;;5050080;28;20440;-64
2021/10/24 11:25:27;;;;;;;5.03;4.33;;;23.40;78.70;;;;;;5050239;28;20845;-64
2021/10/24 11:27:55;;;;;;;6.17;5.30;;;23.70;76.50;;;;;;5049829;28;20465;-64
2021/10/24 11:30:24;;;;;;;5.07;4.30;;;23.40;75.30;;;;;;5050338;28;20450;-64
2021/10/24 11:32:55;;;;;;;5.60;4.80;;;23.00;77.30;;;;;;5050150;28;20942;-64
2021/10/24 11:35:24;;;;;;;7.20;5.10;;;23.30;77.50;;;;;;5049948;28;20488;-64
2021/10/24 11:37:53;;;;;;;6.30;4.60;;;23.20;77.20;;;;;;5049560;28;20455;-64
2021/10/24 11:40:22;;;;;;;4.90;4.17;;;23.50;75.20;;;;;;5050119;28;20462;-64
2021/10/24 11:43:01;;;;;;;4.57;3.70;;;23.40;75.80;;;;;;5049914;28;20977;-64
2021/10/24 11:45:33;;;;;;;6.53;5.03;;;23.90;74.00;;;;;;5049885;28;20465;-64
2021/10/24 11:48:03;;;;;;;5.40;4.20;;;23.80;74.20;;;;;;5049367;28;20452;-64
2021/10/24 11:50:39;;;;;;;6.17;5.00;;;24.70;70.80;;;;;;5049940;28;20458;-64
2021/10/24 11:53:07;;;;;;;5.93;5.33;;;24.60;69.70;;;;;;5049909;28;20817;-64
2021/10/24 11:55:34;;;;;;;4.90;4.30;;;23.00;72.00;;;;;;5049747;28;20857;-65
2021/10/24 11:58:07;;;;;;;5.77;4.93;;;21.30;76.30;;;;;;5049325;28;20455;-64
2021/10/24 12:00:49;;;;;;;5.73;5.17;;;19.90;82.50;;;;;;5049538;28;20440;-63
2021/10/24 12:03:25;;;;;;;5.23;4.20;;;18.70;85.20;;;;;;5049590;28;20585;-64
2021/10/24 12:05:52;;;;;;;6.57;5.07;;;17.60;90.30;;;;;;5049413;28;20538;-63
2021/10/24 12:08:21;;;;;;;8.77;4.70;;;17.00;90.60;;;;;;5049320;28;20440;-64
2021/10/24 12:10:49;;;;;;;5.13;4.63;;;16.50;91.90;;;;;;5049580;28;20829;-64
2021/10/24 12:13:33;;;;;;;5.50;5.00;;;16.20;92.50;;;;;;5049484;28;20443;-64
2021/10/24 12:16:02;;;;;;;7.93;5.93;;;15.80;93.80;;;;;;5049178;28;20487;-63
2021/10/24 12:18:30;;;;;;;6.37;5.17;;;15.70;94.00;;;;;;5049326;28;20813;-64
2021/10/24 12:20:58;;;;;;;7.53;5.43;;;15.30;93.60;;;;;;5049340;28;20448;-64
2021/10/24 12:23:28;;;;;;;7.60;5.20;;;15.10;94.30;;;;;;5049335;28;20448;-64
2021/10/24 12:25:57;;;;;;;5.27;4.73;;;15.00;95.00;;;;;;5052567;28;20462;-63
2021/10/24 12:28:30;;;;;;;5.77;4.20;;;14.90;94.30;;;;;;5052706;28;20451;-64
2021/10/24 12:30:59;;;;;;;5.27;4.77;;;14.90;95.90;;;;;;5053341;28;20444;-64
2021/10/24 12:33:30;;;;;;;9.90;5.00;;;14.80;95.70;;;;;;5053246;28;20475;-63
2021/10/24 12:35:59;;;;;;;4.93;4.30;;;14.90;96.10;;;;;;5052808;28;20483;-63
2021/10/24 12:38:50;;;;;;;5.70;4.03;;;14.90;97.60;;;;;;5052909;28;20452;-64
2021/10/24 12:41:19;;;;;;;5.83;4.37;;;14.90;97.90;;;;;;5053004;28;20447;-63
2021/10/24 12:43:50;;;;;;;8.60;5.20;;;14.80;96.50;;;;;;5052792;28;20439;-64
2021/10/24 12:46:28;;;;;;;7.20;4.90;;;14.80;97.10;;;;;;5052561;28;20436;-63